sensor_id;sensor_type;location;lat;lon;timestamp;pressure;altitude;pressure_sealevel;temperature;humidity
1480;BME280;732;51.698;4.886;2023-09-07T00:01:16;102077.66;;;15.63;73.48
1480;BME280;732;51.698;4.886;2023-09-07T00:03:44;102033.16;;;15.35;73.58
1480;BME280;732;51.698;4.886;2023-09-07T00:06:12;102059.16;;;15.51;73.80
1480;BME280;732;51.698;4.886;2023-09-07T00:08:41;102073.47;;;15.60;73.41
1480;BME280;732;51.698;4.886;2023-09-07T00:11:09;102048.63;;;15.42;73.65
1480;BME280;732;51.698;4.886;2023-09-07T00:13:37;102070.66;;;15.53;74.04
1480;BME280;732;51.698;4.886;2023-09-07T00:16:06;102061.44;;;15.48;74.28
1480;BME280;732;51.698;4.886;2023-09-07T00:18:37;102054.97;;;15.49;74.31
1480;BME280;732;51.698;4.886;2023-09-07T00:21:05;102056.84;;;15.48;73.62
1480;BME280;732;51.698;4.886;2023-09-07T00:23:34;102052.38;;;15.40;73.73
1480;BME280;732;51.698;4.886;2023-09-07T00:26:02;102036.00;;;15.19;73.70
1480;BME280;732;51.698;4.886;2023-09-07T00:28:30;102052.44;;;15.32;73.65
1480;BME280;732;51.698;4.886;2023-09-07T00:30:59;102029.09;;;15.16;73.51
1480;BME280;732;51.698;4.886;2023-09-07T00:33:27;102045.25;;;15.24;73.46
1480;BME280;732;51.698;4.886;2023-09-07T00:35:57;102013.88;;;15.00;74.14
1480;BME280;732;51.698;4.886;2023-09-07T00:38:25;102032.44;;;15.03;73.96
1480;BME280;732;51.698;4.886;2023-09-07T00:40:53;102049.72;;;15.17;74.21
1480;BME280;732;51.698;4.886;2023-09-07T00:43:21;102014.81;;;14.92;74.49
1480;BME280;732;51.698;4.886;2023-09-07T00:45:50;102054.16;;;15.10;74.56
1480;BME280;732;51.698;4.886;2023-09-07T00:48:18;102008.13;;;14.80;75.26
1480;BME280;732;51.698;4.886;2023-09-07T00:50:48;102033.66;;;15.01;75.12
1480;BME280;732;51.698;4.886;2023-09-07T00:53:17;102054.16;;;15.10;75.06
1480;BME280;732;51.698;4.886;2023-09-07T00:55:46;102053.06;;;15.04;74.77
1480;BME280;732;51.698;4.886;2023-09-07T00:58:14;102030.19;;;14.92;75.35
1480;BME280;732;51.698;4.886;2023-09-07T01:00:43;102024.63;;;14.85;75.16
1480;BME280;732;51.698;4.886;2023-09-07T01:03:13;102046.16;;;15.02;74.82
1480;BME280;732;51.698;4.886;2023-09-07T01:05:49;102050.91;;;15.00;74.98
1480;BME280;732;51.698;4.886;2023-09-07T01:08:24;102032.56;;;14.87;74.72
1480;BME280;732;51.698;4.886;2023-09-07T01:10:55;102046.88;;;14.96;74.78
1480;BME280;732;51.698;4.886;2023-09-07T01:13:23;102050.59;;;14.95;74.91
1480;BME280;732;51.698;4.886;2023-09-07T01:15:52;102028.38;;;14.84;75.00
1480;BME280;732;51.698;4.886;2023-09-07T01:18:21;102034.25;;;14.88;74.96
1480;BME280;732;51.698;4.886;2023-09-07T01:20:52;102033.13;;;14.82;75.13
1480;BME280;732;51.698;4.886;2023-09-07T01:23:24;102037.31;;;14.85;74.72
1480;BME280;732;51.698;4.886;2023-09-07T01:25:53;102029.94;;;14.79;74.59
1480;BME280;732;51.698;4.886;2023-09-07T01:28:23;102006.13;;;14.59;74.27
1480;BME280;732;51.698;4.886;2023-09-07T01:30:52;102008.00;;;14.58;74.39
1480;BME280;732;51.698;4.886;2023-09-07T01:33:20;102027.19;;;14.64;74.70
1480;BME280;732;51.698;4.886;2023-09-07T01:35:50;102024.47;;;14.64;75.10
1480;BME280;732;51.698;4.886;2023-09-07T01:38:18;101989.38;;;14.40;75.00
1480;BME280;732;51.698;4.886;2023-09-07T01:40:48;101983.19;;;14.32;74.83
1480;BME280;732;51.698;4.886;2023-09-07T01:43:16;102022.09;;;14.46;74.52
1480;BME280;732;51.698;4.886;2023-09-07T01:45:44;102015.97;;;14.29;75.06
1480;BME280;732;51.698;4.886;2023-09-07T01:48:14;102001.91;;;14.10;75.09
1480;BME280;732;51.698;4.886;2023-09-07T01:50:43;102029.81;;;14.25;75.11
1480;BME280;732;51.698;4.886;2023-09-07T01:53:11;101974.84;;;13.95;75.34
1480;BME280;732;51.698;4.886;2023-09-07T01:55:40;102013.00;;;14.15;75.55
1480;BME280;732;51.698;4.886;2023-09-07T01:58:09;101987.63;;;14.01;75.04
1480;BME280;732;51.698;4.886;2023-09-07T02:00:38;102029.16;;;14.23;75.82
1480;BME280;732;51.698;4.886;2023-09-07T02:03:06;102010.31;;;14.15;75.79
1480;BME280;732;51.698;4.886;2023-09-07T02:05:35;102009.09;;;14.18;75.51
1480;BME280;732;51.698;4.886;2023-09-07T02:08:04;102023.28;;;14.20;75.74
1480;BME280;732;51.698;4.886;2023-09-07T02:10:33;102030.88;;;14.16;75.45
1480;BME280;732;51.698;4.886;2023-09-07T02:13:02;102033.28;;;14.11;75.45
1480;BME280;732;51.698;4.886;2023-09-07T02:15:32;102037.97;;;14.17;75.75
1480;BME280;732;51.698;4.886;2023-09-07T02:18:01;102029.06;;;14.08;76.35
1480;BME280;732;51.698;4.886;2023-09-07T02:20:32;101999.94;;;13.95;76.36
1480;BME280;732;51.698;4.886;2023-09-07T02:23:00;102041.69;;;14.16;76.21
1480;BME280;732;51.698;4.886;2023-09-07T02:25:30;102045.22;;;14.17;75.81
1480;BME280;732;51.698;4.886;2023-09-07T02:27:58;102038.31;;;14.14;76.29
1480;BME280;732;51.698;4.886;2023-09-07T02:30:27;102018.50;;;13.99;76.70
1480;BME280;732;51.698;4.886;2023-09-07T02:33:00;102043.06;;;14.12;76.49
1480;BME280;732;51.698;4.886;2023-09-07T02:35:28;102024.88;;;14.06;76.80
1480;BME280;732;51.698;4.886;2023-09-07T02:37:56;101998.41;;;13.93;76.45
1480;BME280;732;51.698;4.886;2023-09-07T02:40:25;102007.53;;;14.00;76.65
1480;BME280;732;51.698;4.886;2023-09-07T02:42:53;102029.56;;;14.12;76.04
1480;BME280;732;51.698;4.886;2023-09-07T02:45:23;102034.47;;;14.08;76.45
1480;BME280;732;51.698;4.886;2023-09-07T02:47:51;102028.72;;;14.11;76.58
1480;BME280;732;51.698;4.886;2023-09-07T02:50:21;102026.19;;;14.10;76.33
1480;BME280;732;51.698;4.886;2023-09-07T02:52:49;101992.53;;;13.89;76.39
1480;BME280;732;51.698;4.886;2023-09-07T02:55:18;101988.22;;;13.80;76.46
1480;BME280;732;51.698;4.886;2023-09-07T02:57:46;102026.22;;;14.02;76.60
1480;BME280;732;51.698;4.886;2023-09-07T03:00:14;102028.28;;;14.00;76.53
1480;BME280;732;51.698;4.886;2023-09-07T03:02:45;102032.81;;;13.99;76.30
1480;BME280;732;51.698;4.886;2023-09-07T03:05:13;102030.69;;;13.94;76.26
1480;BME280;732;51.698;4.886;2023-09-07T03:07:45;102025.09;;;13.88;76.14
1480;BME280;732;51.698;4.886;2023-09-07T03:10:15;101953.53;;;13.37;76.04
1480;BME280;732;51.698;4.886;2023-09-07T03:12:45;101971.84;;;13.42;76.24
1480;BME280;732;51.698;4.886;2023-09-07T03:15:13;102028.84;;;13.78;76.62
1480;BME280;732;51.698;4.886;2023-09-07T03:17:42;102037.13;;;13.77;77.11
1480;BME280;732;51.698;4.886;2023-09-07T03:20:12;102034.91;;;13.81;76.95
1480;BME280;732;51.698;4.886;2023-09-07T03:22:47;102044.66;;;13.82;77.00
1480;BME280;732;51.698;4.886;2023-09-07T03:25:15;102036.59;;;13.82;76.95
1480;BME280;732;51.698;4.886;2023-09-07T03:27:44;101936.56;;;13.20;76.75
1480;BME280;732;51.698;4.886;2023-09-07T03:30:14;102012.06;;;13.60;76.68
1480;BME280;732;51.698;4.886;2023-09-07T03:32:42;102039.97;;;13.75;76.53
1480;BME280;732;51.698;4.886;2023-09-07T03:35:11;102035.13;;;13.71;76.64
1480;BME280;732;51.698;4.886;2023-09-07T03:37:41;102035.13;;;13.71;77.03
1480;BME280;732;51.698;4.886;2023-09-07T03:40:11;102019.66;;;13.56;76.97
1480;BME280;732;51.698;4.886;2023-09-07T03:42:40;102040.19;;;13.66;76.33
1480;BME280;732;51.698;4.886;2023-09-07T03:45:10;102033.28;;;13.63;76.85
1480;BME280;732;51.698;4.886;2023-09-07T03:47:38;102002.00;;;13.45;76.82
1480;BME280;732;51.698;4.886;2023-09-07T03:50:08;102016.47;;;13.44;76.62
1480;BME280;732;51.698;4.886;2023-09-07T03:52:36;102009.75;;;13.40;76.72
1480;BME280;732;51.698;4.886;2023-09-07T03:55:07;102009.25;;;13.37;76.64
1480;BME280;732;51.698;4.886;2023-09-07T03:57:38;102039.22;;;13.50;76.45
1480;BME280;732;51.698;4.886;2023-09-07T04:00:08;102033.53;;;13.45;76.80
1480;BME280;732;51.698;4.886;2023-09-07T04:02:42;102022.41;;;13.40;76.43
1480;BME280;732;51.698;4.886;2023-09-07T04:05:11;102013.66;;;13.29;76.86
1480;BME280;732;51.698;4.886;2023-09-07T04:07:39;102036.03;;;13.46;76.98
1480;BME280;732;51.698;4.886;2023-09-07T04:10:09;102041.25;;;13.48;76.88
1480;BME280;732;51.698;4.886;2023-09-07T04:12:38;102041.44;;;13.46;77.31
1480;BME280;732;51.698;4.886;2023-09-07T04:15:08;102044.97;;;13.47;77.41
1480;BME280;732;51.698;4.886;2023-09-07T04:17:37;102049.00;;;13.51;77.44
1480;BME280;732;51.698;4.886;2023-09-07T04:20:09;102051.69;;;13.51;77.32
1480;BME280;732;51.698;4.886;2023-09-07T04:22:39;102051.03;;;13.49;77.20
1480;BME280;732;51.698;4.886;2023-09-07T04:25:08;102049.19;;;13.50;77.53
1480;BME280;732;51.698;4.886;2023-09-07T04:27:38;102029.50;;;13.41;77.38
1480;BME280;732;51.698;4.886;2023-09-07T04:30:09;102029.31;;;13.34;77.81
1480;BME280;732;51.698;4.886;2023-09-07T04:32:37;102050.38;;;13.47;77.80
1480;BME280;732;51.698;4.886;2023-09-07T04:35:07;102039.59;;;13.39;78.23
1480;BME280;732;51.698;4.886;2023-09-07T04:37:36;102020.59;;;13.32;77.85
1480;BME280;732;51.698;4.886;2023-09-07T04:40:07;102024.13;;;13.33;78.13
1480;BME280;732;51.698;4.886;2023-09-07T04:42:37;102044.97;;;13.47;77.79
1480;BME280;732;51.698;4.886;2023-09-07T04:45:07;102046.00;;;13.46;77.61
1480;BME280;732;51.698;4.886;2023-09-07T04:47:36;102050.69;;;13.44;77.78
1480;BME280;732;51.698;4.886;2023-09-07T04:50:06;102048.84;;;13.44;77.65
1480;BME280;732;51.698;4.886;2023-09-07T04:52:35;102060.81;;;13.42;77.57
1480;BME280;732;51.698;4.886;2023-09-07T04:55:05;102058.28;;;13.40;77.54
1480;BME280;732;51.698;4.886;2023-09-07T04:57:37;102052.22;;;13.38;77.47
1480;BME280;732;51.698;4.886;2023-09-07T05:00:07;101998.56;;;13.04;77.29
1480;BME280;732;51.698;4.886;2023-09-07T05:02:37;102054.59;;;13.33;77.44
1480;BME280;732;51.698;4.886;2023-09-07T05:05:09;101997.38;;;12.98;77.33
1480;BME280;732;51.698;4.886;2023-09-07T05:07:37;102054.94;;;13.30;77.38
1480;BME280;732;51.698;4.886;2023-09-07T05:10:08;102067.56;;;13.29;77.58
1480;BME280;732;51.698;4.886;2023-09-07T05:12:41;102053.44;;;13.27;77.49
1480;BME280;732;51.698;4.886;2023-09-07T05:15:11;102018.75;;;13.08;77.43
1480;BME280;732;51.698;4.886;2023-09-07T05:17:41;102060.34;;;13.30;78.15
1480;BME280;732;51.698;4.886;2023-09-07T05:20:10;102054.44;;;13.26;78.06
1480;BME280;732;51.698;4.886;2023-09-07T05:22:39;102064.53;;;13.33;78.56
1480;BME280;732;51.698;4.886;2023-09-07T05:25:09;102068.38;;;13.38;78.64
1480;BME280;732;51.698;4.886;2023-09-07T05:27:40;102036.25;;;13.20;78.26
1480;BME280;732;51.698;4.886;2023-09-07T05:30:11;102076.66;;;13.45;78.53
1480;BME280;732;51.698;4.886;2023-09-07T05:32:39;102046.50;;;13.33;78.14
1480;BME280;732;51.698;4.886;2023-09-07T05:35:09;102081.69;;;13.48;78.70
1480;BME280;732;51.698;4.886;2023-09-07T05:37:39;102065.38;;;13.41;77.93
1480;BME280;732;51.698;4.886;2023-09-07T05:40:09;102058.47;;;13.39;77.94
1480;BME280;732;51.698;4.886;2023-09-07T05:42:38;102072.94;;;13.46;77.85
1480;BME280;732;51.698;4.886;2023-09-07T05:45:08;102036.59;;;13.25;78.22
1480;BME280;732;51.698;4.886;2023-09-07T05:47:37;102065.19;;;13.51;78.35
1480;BME280;732;51.698;4.886;2023-09-07T05:50:08;102084.38;;;13.65;78.05
1480;BME280;732;51.698;4.886;2023-09-07T05:52:37;102065.84;;;13.53;77.97
1480;BME280;732;51.698;4.886;2023-09-07T05:55:07;102085.34;;;13.72;78.04
1480;BME280;732;51.698;4.886;2023-09-07T05:57:35;102058.09;;;13.50;78.53
1480;BME280;732;51.698;4.886;2023-09-07T06:00:05;102091.41;;;13.74;78.74
1480;BME280;732;51.698;4.886;2023-09-07T06:02:40;102024.78;;;13.35;78.67
1480;BME280;732;51.698;4.886;2023-09-07T06:05:10;102073.41;;;13.66;78.46
1480;BME280;732;51.698;4.886;2023-09-07T06:07:39;102057.16;;;13.74;78.14
1480;BME280;732;51.698;4.886;2023-09-07T06:10:08;102097.28;;;13.94;78.14
1480;BME280;732;51.698;4.886;2023-09-07T06:12:37;102096.56;;;14.00;77.95
1480;BME280;732;51.698;4.886;2023-09-07T06:15:08;102100.44;;;14.06;77.86
1480;BME280;732;51.698;4.886;2023-09-07T06:17:37;102100.44;;;14.06;78.03
1480;BME280;732;51.698;4.886;2023-09-07T06:20:09;102025.38;;;13.61;77.72
1480;BME280;732;51.698;4.886;2023-09-07T06:22:38;102096.34;;;14.18;77.79
1480;BME280;732;51.698;4.886;2023-09-07T06:25:07;102103.56;;;14.26;77.57
1480;BME280;732;51.698;4.886;2023-09-07T06:27:35;102095.94;;;14.30;77.30
1480;BME280;732;51.698;4.886;2023-09-07T06:30:07;102071.75;;;14.13;77.18
1480;BME280;732;51.698;4.886;2023-09-07T06:32:38;102107.03;;;14.35;77.47
1480;BME280;732;51.698;4.886;2023-09-07T06:35:10;102108.72;;;14.36;77.52
1480;BME280;732;51.698;4.886;2023-09-07T06:37:38;102106.34;;;14.41;77.55
1480;BME280;732;51.698;4.886;2023-09-07T06:40:10;102106.47;;;14.48;77.41
1480;BME280;732;51.698;4.886;2023-09-07T06:42:39;102106.75;;;14.53;77.37
1480;BME280;732;51.698;4.886;2023-09-07T06:45:13;102062.53;;;14.31;77.73
1480;BME280;732;51.698;4.886;2023-09-07T06:47:41;102102.16;;;14.62;77.37
1480;BME280;732;51.698;4.886;2023-09-07T06:50:12;102051.84;;;14.37;77.54
1480;BME280;732;51.698;4.886;2023-09-07T06:52:40;102077.19;;;14.59;77.56
1480;BME280;732;51.698;4.886;2023-09-07T06:55:09;102089.56;;;14.77;77.82
1480;BME280;732;51.698;4.886;2023-09-07T06:57:37;102106.75;;;14.84;77.85
1480;BME280;732;51.698;4.886;2023-09-07T07:00:07;102102.66;;;14.88;77.88
1480;BME280;732;51.698;4.886;2023-09-07T07:02:36;102093.84;;;14.95;77.52
1480;BME280;732;51.698;4.886;2023-09-07T07:05:06;102057.69;;;14.72;77.83
1480;BME280;732;51.698;4.886;2023-09-07T07:07:36;102100.84;;;15.04;78.19
1480;BME280;732;51.698;4.886;2023-09-07T07:10:07;102099.09;;;15.11;77.75
1480;BME280;732;51.698;4.886;2023-09-07T07:12:39;102103.97;;;15.16;77.64
1480;BME280;732;51.698;4.886;2023-09-07T07:15:09;102065.63;;;14.97;77.74
1480;BME280;732;51.698;4.886;2023-09-07T07:17:39;102086.06;;;15.15;77.67
1480;BME280;732;51.698;4.886;2023-09-07T07:20:09;102111.88;;;15.40;77.54
1480;BME280;732;51.698;4.886;2023-09-07T07:22:39;102104.03;;;15.46;77.32
1480;BME280;732;51.698;4.886;2023-09-07T07:25:10;102104.41;;;15.58;77.49
1480;BME280;732;51.698;4.886;2023-09-07T07:27:39;102112.81;;;15.63;77.07
1480;BME280;732;51.698;4.886;2023-09-07T07:30:08;102110.41;;;15.68;77.36
1480;BME280;732;51.698;4.886;2023-09-07T07:32:39;102104.06;;;15.76;77.22
1480;BME280;732;51.698;4.886;2023-09-07T07:35:08;102113.13;;;15.83;76.96
1480;BME280;732;51.698;4.886;2023-09-07T07:37:38;102110.50;;;15.90;77.01
1480;BME280;732;51.698;4.886;2023-09-07T07:40:08;102085.19;;;15.82;76.42
1480;BME280;732;51.698;4.886;2023-09-07T07:42:37;102092.97;;;16.00;76.43
1480;BME280;732;51.698;4.886;2023-09-07T07:45:07;102111.03;;;16.15;75.97
1480;BME280;732;51.698;4.886;2023-09-07T07:47:36;102102.81;;;16.23;76.20
1480;BME280;732;51.698;4.886;2023-09-07T07:50:06;102033.44;;;15.85;76.00
1480;BME280;732;51.698;4.886;2023-09-07T07:52:35;102101.56;;;16.41;75.74
1480;BME280;732;51.698;4.886;2023-09-07T07:55:05;102095.13;;;16.42;75.28
1480;BME280;732;51.698;4.886;2023-09-07T07:57:34;102064.41;;;16.34;75.00
1480;BME280;732;51.698;4.886;2023-09-07T08:00:05;102093.66;;;16.61;74.65
1480;BME280;732;51.698;4.886;2023-09-07T08:02:40;102072.38;;;16.58;74.90
1480;BME280;732;51.698;4.886;2023-09-07T08:05:10;102070.75;;;16.63;74.40
1480;BME280;732;51.698;4.886;2023-09-07T08:07:39;102089.94;;;16.83;74.69
1480;BME280;732;51.698;4.886;2023-09-07T08:10:09;102084.88;;;17.02;73.91
1480;BME280;732;51.698;4.886;2023-09-07T08:12:38;102069.91;;;17.06;74.17
1480;BME280;732;51.698;4.886;2023-09-07T08:15:07;102084.44;;;17.55;74.48
1480;BME280;732;51.698;4.886;2023-09-07T08:17:36;102066.34;;;18.04;72.64
1480;BME280;732;51.698;4.886;2023-09-07T08:20:05;102058.38;;;18.65;70.86
1480;BME280;732;51.698;4.886;2023-09-07T08:22:38;102082.66;;;19.33;67.60
1480;BME280;732;51.698;4.886;2023-09-07T08:25:12;102075.81;;;19.89;66.25
1480;BME280;732;51.698;4.886;2023-09-07T08:27:42;102052.38;;;20.27;65.10
1480;BME280;732;51.698;4.886;2023-09-07T08:30:12;102075.28;;;20.90;63.21
1480;BME280;732;51.698;4.886;2023-09-07T08:32:42;102071.94;;;21.32;61.51
1480;BME280;732;51.698;4.886;2023-09-07T08:35:12;102036.50;;;21.50;60.07
1480;BME280;732;51.698;4.886;2023-09-07T08:37:41;102034.56;;;21.88;59.82
1480;BME280;732;51.698;4.886;2023-09-07T08:40:09;102066.16;;;22.33;58.68
1480;BME280;732;51.698;4.886;2023-09-07T08:42:39;102068.75;;;22.58;57.30
1480;BME280;732;51.698;4.886;2023-09-07T08:45:11;102063.09;;;22.84;56.80
1480;BME280;732;51.698;4.886;2023-09-07T08:47:43;102067.75;;;23.07;57.12
1480;BME280;732;51.698;4.886;2023-09-07T08:50:13;102043.81;;;23.14;56.89
1480;BME280;732;51.698;4.886;2023-09-07T08:52:44;102052.63;;;23.40;56.43
1480;BME280;732;51.698;4.886;2023-09-07T08:55:13;102021.91;;;23.38;55.48
1480;BME280;732;51.698;4.886;2023-09-07T08:57:43;102058.31;;;23.74;54.84
1480;BME280;732;51.698;4.886;2023-09-07T09:00:13;102046.94;;;23.82;54.29
1480;BME280;732;51.698;4.886;2023-09-07T09:02:46;102044.84;;;24.01;54.16
1480;BME280;732;51.698;4.886;2023-09-07T09:05:19;102050.25;;;24.25;54.48
1480;BME280;732;51.698;4.886;2023-09-07T09:07:48;102055.84;;;24.30;54.51
1480;BME280;732;51.698;4.886;2023-09-07T09:10:18;102059.44;;;24.48;53.90
1480;BME280;732;51.698;4.886;2023-09-07T09:12:47;102055.53;;;24.61;52.64
1480;BME280;732;51.698;4.886;2023-09-07T09:15:16;102050.50;;;24.69;52.95
1480;BME280;732;51.698;4.886;2023-09-07T09:17:45;102002.31;;;24.45;53.69
1480;BME280;732;51.698;4.886;2023-09-07T09:20:21;102043.25;;;24.80;51.72
1480;BME280;732;51.698;4.886;2023-09-07T09:22:52;102050.31;;;24.93;52.05
1480;BME280;732;51.698;4.886;2023-09-07T09:25:21;102062.09;;;25.11;51.45
1480;BME280;732;51.698;4.886;2023-09-07T09:27:51;102053.44;;;25.19;51.69
1480;BME280;732;51.698;4.886;2023-09-07T09:30:19;102067.47;;;25.40;50.73
1480;BME280;732;51.698;4.886;2023-09-07T09:32:48;102070.78;;;25.59;48.85
1480;BME280;732;51.698;4.886;2023-09-07T09:35:17;102036.50;;;25.44;49.30
1480;BME280;732;51.698;4.886;2023-09-07T09:37:47;102064.69;;;25.79;50.14
1480;BME280;732;51.698;4.886;2023-09-07T09:40:16;102041.03;;;25.78;49.96
1480;BME280;732;51.698;4.886;2023-09-07T09:42:44;102054.91;;;25.88;49.09
1480;BME280;732;51.698;4.886;2023-09-07T09:45:15;102061.25;;;26.11;49.38
1480;BME280;732;51.698;4.886;2023-09-07T09:47:43;102027.47;;;25.93;49.19
1480;BME280;732;51.698;4.886;2023-09-07T09:50:11;102039.47;;;26.09;48.54
1480;BME280;732;51.698;4.886;2023-09-07T09:52:39;102052.47;;;26.14;48.42
1480;BME280;732;51.698;4.886;2023-09-07T09:55:09;102047.38;;;26.28;47.99
1480;BME280;732;51.698;4.886;2023-09-07T09:57:40;102051.31;;;26.37;47.68
1480;BME280;732;51.698;4.886;2023-09-07T10:00:10;102037.22;;;26.28;48.35
1480;BME280;732;51.698;4.886;2023-09-07T10:03:00;102038.09;;;26.39;46.84
1480;BME280;732;51.698;4.886;2023-09-07T10:05:31;102051.63;;;26.68;46.90
1480;BME280;732;51.698;4.886;2023-09-07T10:08:02;102005.97;;;26.45;47.63
1480;BME280;732;51.698;4.886;2023-09-07T10:10:35;102027.19;;;26.77;46.54
1480;BME280;732;51.698;4.886;2023-09-07T10:13:04;102040.25;;;26.97;46.86
1480;BME280;732;51.698;4.886;2023-09-07T10:15:33;102039.72;;;27.05;47.62
1480;BME280;732;51.698;4.886;2023-09-07T10:18:10;102027.31;;;27.03;46.07
1480;BME280;732;51.698;4.886;2023-09-07T10:20:50;102016.97;;;27.20;45.81
1480;BME280;732;51.698;4.886;2023-09-07T10:23:23;102018.13;;;27.24;45.48
1480;BME280;732;51.698;4.886;2023-09-07T10:25:53;102035.63;;;27.56;45.48
1480;BME280;732;51.698;4.886;2023-09-07T10:28:24;102006.94;;;27.52;46.08
1480;BME280;732;51.698;4.886;2023-09-07T10:31:03;102009.78;;;27.72;45.34
1480;BME280;732;51.698;4.886;2023-09-07T10:33:35;102031.91;;;28.03;44.80
1480;BME280;732;51.698;4.886;2023-09-07T10:36:05;101947.44;;;27.66;43.06
1480;BME280;732;51.698;4.886;2023-09-07T10:38:34;101975.88;;;27.92;43.37
1480;BME280;732;51.698;4.886;2023-09-07T10:41:04;102014.28;;;28.25;43.27
1480;BME280;732;51.698;4.886;2023-09-07T10:43:33;102011.84;;;28.39;43.53
1480;BME280;732;51.698;4.886;2023-09-07T10:46:02;101985.88;;;28.35;44.65
1480;BME280;732;51.698;4.886;2023-09-07T10:48:31;101999.13;;;28.48;44.58
1480;BME280;732;51.698;4.886;2023-09-07T10:51:01;102012.06;;;28.73;43.89
1480;BME280;732;51.698;4.886;2023-09-07T10:53:31;102013.22;;;28.78;42.23
1480;BME280;732;51.698;4.886;2023-09-07T10:56:03;101988.59;;;28.76;43.33
1480;BME280;732;51.698;4.886;2023-09-07T10:58:34;101992.19;;;28.87;42.73
1480;BME280;732;51.698;4.886;2023-09-07T11:01:02;101994.91;;;29.08;41.86
1480;BME280;732;51.698;4.886;2023-09-07T11:03:31;102008.63;;;29.28;41.40
1480;BME280;732;51.698;4.886;2023-09-07T11:06:06;102007.25;;;29.26;40.44
1480;BME280;732;51.698;4.886;2023-09-07T11:08:36;102008.59;;;29.38;40.59
1480;BME280;732;51.698;4.886;2023-09-07T11:11:05;101993.91;;;29.48;41.35
1480;BME280;732;51.698;4.886;2023-09-07T11:13:33;101999.16;;;29.55;40.78
1480;BME280;732;51.698;4.886;2023-09-07T11:16:06;101998.56;;;29.58;40.86
1480;BME280;732;51.698;4.886;2023-09-07T11:18:35;101999.63;;;29.67;40.25
1480;BME280;732;51.698;4.886;2023-09-07T11:21:05;102005.97;;;29.68;39.80
1480;BME280;732;51.698;4.886;2023-09-07T11:23:34;101995.13;;;29.82;39.75
1480;BME280;732;51.698;4.886;2023-09-07T11:26:05;101982.41;;;29.86;39.83
1480;BME280;732;51.698;4.886;2023-09-07T11:28:34;101992.28;;;29.97;39.78
1480;BME280;732;51.698;4.886;2023-09-07T11:31:02;101992.19;;;30.08;40.24
1480;BME280;732;51.698;4.886;2023-09-07T11:33:32;101982.94;;;30.23;38.81
1480;BME280;732;51.698;4.886;2023-09-07T11:36:02;101978.13;;;30.39;38.64
1480;BME280;732;51.698;4.886;2023-09-07T11:38:36;101962.19;;;30.20;38.40
1480;BME280;732;51.698;4.886;2023-09-07T11:41:05;101980.38;;;30.31;39.27
1480;BME280;732;51.698;4.886;2023-09-07T11:43:33;101958.22;;;30.31;38.43
1480;BME280;732;51.698;4.886;2023-09-07T11:46:01;101970.69;;;30.63;39.24
1480;BME280;732;51.698;4.886;2023-09-07T11:48:31;101974.50;;;30.67;38.80
1480;BME280;732;51.698;4.886;2023-09-07T11:51:01;101945.63;;;30.74;37.32
1480;BME280;732;51.698;4.886;2023-09-07T11:53:29;101917.09;;;30.49;37.74
1480;BME280;732;51.698;4.886;2023-09-07T11:55:59;101954.13;;;30.82;37.04
1480;BME280;732;51.698;4.886;2023-09-07T11:58:28;101967.63;;;30.89;38.35
1480;BME280;732;51.698;4.886;2023-09-07T12:00:57;101922.41;;;30.70;36.56
1480;BME280;732;51.698;4.886;2023-09-07T12:03:25;101939.59;;;30.96;36.23
1480;BME280;732;51.698;4.886;2023-09-07T12:05:53;101923.91;;;30.86;35.13
1480;BME280;732;51.698;4.886;2023-09-07T12:08:22;101963.91;;;31.23;35.63
1480;BME280;732;51.698;4.886;2023-09-07T12:10:50;101928.13;;;31.03;35.12
1480;BME280;732;51.698;4.886;2023-09-07T12:13:20;101961.66;;;31.25;36.93
1480;BME280;732;51.698;4.886;2023-09-07T12:15:48;101944.44;;;31.28;37.05
1480;BME280;732;51.698;4.886;2023-09-07T12:18:17;101966.06;;;31.51;35.32
1480;BME280;732;51.698;4.886;2023-09-07T12:20:45;101966.97;;;31.46;35.02
1480;BME280;732;51.698;4.886;2023-09-07T12:23:13;101934.25;;;31.43;35.24
1480;BME280;732;51.698;4.886;2023-09-07T12:25:41;101949.94;;;31.53;34.90
1480;BME280;732;51.698;4.886;2023-09-07T12:28:10;101946.50;;;31.61;34.42
1480;BME280;732;51.698;4.886;2023-09-07T12:30:40;101935.00;;;31.68;34.08
1480;BME280;732;51.698;4.886;2023-09-07T12:33:11;101921.59;;;31.56;35.42
1480;BME280;732;51.698;4.886;2023-09-07T12:35:39;101939.13;;;31.70;35.71
1480;BME280;732;51.698;4.886;2023-09-07T12:38:07;101916.13;;;31.70;35.42
1480;BME280;732;51.698;4.886;2023-09-07T12:40:38;101930.03;;;31.84;33.86
1480;BME280;732;51.698;4.886;2023-09-07T12:43:06;101926.94;;;31.85;34.32
1480;BME280;732;51.698;4.886;2023-09-07T12:45:34;101925.81;;;31.86;33.71
1480;BME280;732;51.698;4.886;2023-09-07T12:48:10;101924.44;;;31.89;33.49
1480;BME280;732;51.698;4.886;2023-09-07T12:50:39;101918.63;;;31.85;34.04
1480;BME280;732;51.698;4.886;2023-09-07T12:53:07;101911.31;;;31.94;33.63
1480;BME280;732;51.698;4.886;2023-09-07T12:55:35;101886.97;;;31.86;34.36
1480;BME280;732;51.698;4.886;2023-09-07T12:58:04;101909.19;;;32.05;34.34
1480;BME280;732;51.698;4.886;2023-09-07T13:00:32;101872.28;;;31.86;34.57
1480;BME280;732;51.698;4.886;2023-09-07T13:03:00;101843.34;;;31.73;34.63
1480;BME280;732;51.698;4.886;2023-09-07T13:05:30;101886.13;;;32.05;34.38
1480;BME280;732;51.698;4.886;2023-09-07T13:07:59;101875.16;;;32.14;35.00
1480;BME280;732;51.698;4.886;2023-09-07T13:10:29;101895.56;;;32.37;34.93
1480;BME280;732;51.698;4.886;2023-09-07T13:12:57;101883.84;;;32.40;33.09
1480;BME280;732;51.698;4.886;2023-09-07T13:15:26;101836.88;;;31.97;33.44
1480;BME280;732;51.698;4.886;2023-09-07T13:17:54;101855.16;;;31.98;34.62
1480;BME280;732;51.698;4.886;2023-09-07T13:20:23;101859.13;;;32.10;34.72
1480;BME280;732;51.698;4.886;2023-09-07T13:22:52;101878.25;;;32.26;33.71
1480;BME280;732;51.698;4.886;2023-09-07T13:25:21;101862.09;;;32.14;33.02
1480;BME280;732;51.698;4.886;2023-09-07T13:27:49;101880.50;;;32.24;33.14
1480;BME280;732;51.698;4.886;2023-09-07T13:30:17;101877.13;;;32.27;34.15
1480;BME280;732;51.698;4.886;2023-09-07T13:32:45;101873.91;;;32.20;33.75
1480;BME280;732;51.698;4.886;2023-09-07T13:35:15;101869.00;;;32.17;33.25